CSCL Summer — VRMZ7 — position and weather

sailwx.info

Track history (hours):
 
Tides and Currents Weather Stations Pressure Air Temp Water Temp Dewpoint Dewpoint Depression Visibility Wind Speed Wind Dir Waves Ship Positions

CSCL Summer

Last reported at 2018-Jun-20 05:00 UTC. Time now 2018-Jun-20 05:16 UTC.
Position N 37°17' W 123°32'.

Length 335 m; draft 13.3 m.

Type: Cargo ship. MMSI: 477293900.

Date/timePositionNaut miles runAvg speedWind from/ knotsBaromVisibWave heightAir tempDewpointWater temp
2018-Jun-20 05:00N 37°17' W 123°32'916.3
2018-Jun-20 04:28N 37°24' W 123°38'816.8
2018-Jun-20 04:00N 37°31' W 123°41'917.0
2018-Jun-20 03:30N 37°39' W 123°45'917.6
2018-Jun-20 03:00N 37°47' W 123°49'917.7
2018-Jun-20 02:30N 37°56' W 123°53'917.4
2018-Jun-20 02:00N 38°04' W 123°57'917.4
2018-Jun-20 01:30N 38°12' W 124°01'917.2
2018-Jun-20 01:00N 38°20' W 124°05'817.0
2018-Jun-20 00:30N 38°28' W 124°08'917.1
2018-Jun-20 00:00N 38°36' W 124°12'916.8
2018-Jun-19 23:29N 38°44' W 124°16'1016.3
2018-Jun-19 22:52N 38°54' W 124°21'717.0
2018-Jun-19 22:27N 39°00' W 124°24'1017.5
2018-Jun-19 21:52N 39°10' W 124°29'1817.5
2018-Jun-19 20:49N 39°27' W 124°38'1017.4
2018-Jun-19 20:14N 39°36' W 124°42'717.2
2018-Jun-19 19:50N 39°43' W 124°45'1817.2
2018-Jun-19 18:49N 39°59' W 124°53'9216.3
2018-Jun-19 13:09N 41°28' W 125°28'214.2
2018-Jun-19 12:59N 41°30' W 125°29'713.7
2018-Jun-19 12:30N 41°36' W 125°31'713.8
2018-Jun-19 12:00N 41°43' W 125°34'713.8
2018-Jun-19 11:28N 41°50' W 125°36'613.6
2018-Jun-19 11:00N 41°56' W 125°38'713.8
2018-Jun-19 10:29N 42°03' W 125°41'713.6
2018-Jun-19 10:00N 42°10' W 125°43'713.7
2018-Jun-19 09:30N 42°16' W 125°45'714.2
2018-Jun-19 09:00N 42°23' W 125°48'714.1
2018-Jun-19 08:30N 42°30' W 125°50'714.2
2018-Jun-19 08:00N 42°37' W 125°53'713.7
2018-Jun-19 07:30N 42°43' W 125°55'713.8
2018-Jun-19 06:59N 42°50' W 125°58'714.0
2018-Jun-19 06:30N 42°57' W 126°01'714.0
2018-Jun-19 06:00N 43°03' W 126°03'713.9
2018-Jun-19 05:30N 43°10' W 126°06'713.6
2018-Jun-19 05:00N 43°17' W 126°08'1013.6
2018-Jun-19 04:18N 43°26' W 126°11'513.8
2018-Jun-19 03:54N 43°31' W 126°13'613.7
2018-Jun-19 03:29N 43°37' W 126°15'713.8
2018-Jun-19 03:00N 43°43' W 126°18'816.4
2018-Jun-19 02:30N 43°51' W 126°21'916.9
2018-Jun-19 01:59N 43°60' W 126°24'816.7
2018-Jun-19 01:30N 44°07' W 126°27'816.3
2018-Jun-19 01:00N 44°15' W 126°30'1916.0
2018-Jun-18 23:48N 44°34' W 126°37'616.5
2018-Jun-18 23:28N 44°39' W 126°39'816.4
2018-Jun-18 23:00N 44°46' W 126°42'816.2
2018-Jun-18 22:30N 44°54' W 126°45'816.5
2018-Jun-18 22:00N 45°02' W 126°48'1416.6
2018-Jun-18 21:10N 45°16' W 126°53'316.4
2018-Jun-18 21:00N 45°18' W 126°54'816.2
2018-Jun-18 20:30N 45°26' W 126°57'816.3
2018-Jun-18 20:00N 45°34' W 127°00'917.0
2018-Jun-18 19:30N 45°42' W 127°04'817.0
2018-Jun-18 19:00N 45°50' W 127°07'1116.7
2018-Jun-18 18:20N 46°01' W 127°12'916.5
2018-Jun-18 17:46N 46°10' W 127°16'716.7
2018-Jun-18 17:21N 46°16' W 127°19'616.8
2018-Jun-18 17:00N 46°22' W 127°22'816.8
2018-Jun-18 16:30N 46°30' W 127°25'917.1
2018-Jun-18 16:00N 46°38' W 127°29'917.2
2018-Jun-18 15:30N 46°46' W 127°32'816.8
2018-Jun-18 15:00N 46°54' W 127°36'815.2
2018-Jun-18 14:30N 47°02' W 127°39'714.1
2018-Jun-18 14:00N 47°08' W 127°43'714.2
2018-Jun-18 13:30N 47°15' W 127°46'714.3
2018-Jun-18 13:00N 47°22' W 127°49'4114.2
2018-Jun-18 10:05N 48°01' W 128°07'114.0
2018-Jun-18 10:00N 48°03' W 128°08'1014.0
2018-Jun-18 09:19N 48°12' W 128°12'414.2
2018-Jun-18 09:00N 48°16' W 128°14'714.1
2018-Jun-18 08:30N 48°23' W 128°18'714.0
2018-Jun-18 08:00N 48°29' W 128°21'714.1
2018-Jun-18 07:30N 48°36' W 128°24'714.2
2018-Jun-18 06:58N 48°44' W 128°27'17116.8
2018-Jun-17 20:50N 51°27' W 129°47'716.7
2018-Jun-17 20:26N 51°33' W 129°50'816.1
2018-Jun-17 19:55N 51°41' W 129°54'716.3
2018-Jun-17 19:30N 51°47' W 129°58'816.3
2018-Jun-17 19:00N 51°55' W 130°01'816.5
2018-Jun-17 18:30N 52°03' W 130°06'917.1
2018-Jun-17 17:57N 52°12' W 130°10'817.1
2018-Jun-17 17:30N 52°19' W 130°14'5717.9
2018-Jun-17 14:18N 53°14' W 130°42'518.1
2018-Jun-17 14:01N 53°19' W 130°45'918.1
2018-Jun-17 13:30N 53°28' W 130°50'918.1
2018-Jun-17 13:00N 53°36' W 130°52'917.6
2018-Jun-17 12:31N 53°45' W 130°55'917.5
2018-Jun-17 12:00N 53°54' W 130°58'917.5
2018-Jun-17 11:30N 54°02' W 131°00'917.5
2018-Jun-17 11:00N 54°11' W 131°00'816.2
2018-Jun-17 10:31N 54°19' W 130°57'5 9.9
2018-Jun-17 10:01N 54°17' W 130°49'815.3
2018-Jun-17 09:30N 54°14' W 130°37'917.3
2018-Jun-17 09:00N 54°12' W 130°23'4 8.2
2018-Jun-17 08:30N 54°16' W 130°21'2 3.1
2018-Jun-17 08:00N 54°17' W 130°22'0 0.0
2018-Jun-17 07:27N 54°17' W 130°22'0 0.0
2018-Jun-17 06:54N 54°17' W 130°22'0 0.0
2018-Jun-17 06:30N 54°17' W 130°22'0 0.0
2018-Jun-17 06:00N 54°17' W 130°22'0 0.0
2018-Jun-17 05:30N 54°17' W 130°22'0 0.0
2018-Jun-17 05:00N 54°17' W 130°22'0 0.0
2018-Jun-17 04:27N 54°17' W 130°22'0 0.0
2018-Jun-17 04:00N 54°17' W 130°22'0 0.0
2018-Jun-17 03:30N 54°17' W 130°22'0 0.0
2018-Jun-17 03:00N 54°17' W 130°22'0 0.0
2018-Jun-17 02:30N 54°17' W 130°22'0 0.0
2018-Jun-17 02:00N 54°17' W 130°22'0 0.0
2018-Jun-17 01:30N 54°17' W 130°22'0 0.0
2018-Jun-17 00:57N 54°17' W 130°22'0 0.0
2018-Jun-17 00:30N 54°17' W 130°22'0 0.0
2018-Jun-16 23:57N 54°17' W 130°22'0 0.0
2018-Jun-16 23:27N 54°17' W 130°22'0 0.0
2018-Jun-16 22:57N 54°17' W 130°22'0 0.0
2018-Jun-16 22:27N 54°17' W 130°22'0 0.0
2018-Jun-16 21:57N 54°17' W 130°22'0 0.0
2018-Jun-16 21:27N 54°17' W 130°22'0 0.0
2018-Jun-16 20:48N 54°17' W 130°22'0 0.0
2018-Jun-16 19:18N 54°17' W 130°22'0 0.0
2018-Jun-16 19:00N 54°17' W 130°22'0 0.0
2018-Jun-16 16:06N 54°17' W 130°22'0 0.0
2018-Jun-16 15:45N 54°17' W 130°22'0 0.0
2018-Jun-16 15:30N 54°17' W 130°22'0 0.0
2018-Jun-16 15:00N 54°17' W 130°22'0 0.1
2018-Jun-16 14:30N 54°17' W 130°22'0 0.1
2018-Jun-16 13:48N 54°17' W 130°22'0 0.0
2018-Jun-16 13:30N 54°17' W 130°22'0 0.0
2018-Jun-16 13:00N 54°17' W 130°22'0 0.0
2018-Jun-16 11:54N 54°17' W 130°22'0 0.0
2018-Jun-16 11:24N 54°17' W 130°22'0 0.0
2018-Jun-16 11:00N 54°17' W 130°22'0 0.0
2018-Jun-16 10:30N 54°17' W 130°22'0 0.0
2018-Jun-16 10:00N 54°17' W 130°22'0 0.0
2018-Jun-16 09:30N 54°17' W 130°22'0 0.0
2018-Jun-16 09:00N 54°17' W 130°22'0 0.0
2018-Jun-16 08:30N 54°17' W 130°22'0 0.0
2018-Jun-16 08:00N 54°17' W 130°22'0 0.0
2018-Jun-16 05:36N 54°17' W 130°22'0 0.0
2018-Jun-16 05:24N 54°17' W 130°22'0 0.0
2018-Jun-16 04:57N 54°17' W 130°22'0 0.0
2018-Jun-16 04:30N 54°17' W 130°22'0 0.0
2018-Jun-16 03:54N 54°17' W 130°22'0 0.0
2018-Jun-16 03:30N 54°17' W 130°22'0 0.0
2018-Jun-16 02:48N 54°17' W 130°22'0 0.0
2018-Jun-16 02:30N 54°17' W 130°22'0 0.0
2018-Jun-16 02:00N 54°17' W 130°22'0 0.0
2018-Jun-16 01:21N 54°17' W 130°22'0 0.0
2018-Jun-16 01:00N 54°17' W 130°22'0 0.0
2018-Jun-16 00:24N 54°17' W 130°22'0 0.0
2018-Jun-16 00:00N 54°17' W 130°22'0 0.0
2018-Jun-15 23:24N 54°17' W 130°22'0 0.0
2018-Jun-15 23:00N 54°17' W 130°22'0 0.0
2018-Jun-15 22:30N 54°17' W 130°22'0 0.0
2018-Jun-15 22:00N 54°17' W 130°22'0 0.0
2018-Jun-15 21:24N 54°17' W 130°22'0 0.0
2018-Jun-15 20:57N 54°17' W 130°22'1 1.2
2018-Jun-15 20:30N 54°18' W 130°22'1 1.2
2018-Jun-15 20:00N 54°17' W 130°22'4 8.2
2018-Jun-15 19:30N 54°13' W 130°21'4 7.6
2018-Jun-15 19:00N 54°12' W 130°27'917.3
2018-Jun-15 18:30N 54°15' W 130°41'816.1
2018-Jun-15 18:00N 54°19' W 130°53'612.5
2018-Jun-15 17:30N 54°20' W 131°03'917.3
2018-Jun-15 17:00N 54°20' W 131°18'918.2
2018-Jun-15 16:30N 54°20' W 131°34'917.7
2018-Jun-15 15:59N 54°20' W 131°50'  
2018-Jun-11 00:00N 54°42' E 171°36'   050 / 281013.0 5.4 8.0 4.0
Track history (hours):
 
Tides and Currents Weather Stations Pressure Air Temp Water Temp Dewpoint Dewpoint Depression Visibility Wind Speed Wind Dir Waves Ship Positions

CSCL Summer

Last reported at 2018-Jun-20 05:00 UTC. Time now 2018-Jun-20 05:16 UTC.
Position N 37°17' W 123°32'.

Length 335 m; draft 13.3 m.

Type: Cargo ship. MMSI: 477293900.

Date/timePositionNaut miles runAvg speedWind from/ knotsBaromVisibWave heightAir tempDewpointWater temp
2018-Jun-20 05:00N 37°17' W 123°32'916.3
2018-Jun-20 04:28N 37°24' W 123°38'816.8
2018-Jun-20 04:00N 37°31' W 123°41'917.0
2018-Jun-20 03:30N 37°39' W 123°45'917.6
2018-Jun-20 03:00N 37°47' W 123°49'917.7
2018-Jun-20 02:30N 37°56' W 123°53'917.4
2018-Jun-20 02:00N 38°04' W 123°57'917.4
2018-Jun-20 01:30N 38°12' W 124°01'917.2
2018-Jun-20 01:00N 38°20' W 124°05'817.0
2018-Jun-20 00:30N 38°28' W 124°08'917.1
2018-Jun-20 00:00N 38°36' W 124°12'916.8
2018-Jun-19 23:29N 38°44' W 124°16'1016.3
2018-Jun-19 22:52N 38°54' W 124°21'717.0
2018-Jun-19 22:27N 39°00' W 124°24'1017.5
2018-Jun-19 21:52N 39°10' W 124°29'1817.5
2018-Jun-19 20:49N 39°27' W 124°38'1017.4
2018-Jun-19 20:14N 39°36' W 124°42'717.2
2018-Jun-19 19:50N 39°43' W 124°45'1817.2
2018-Jun-19 18:49N 39°59' W 124°53'9216.3
2018-Jun-19 13:09N 41°28' W 125°28'214.2
2018-Jun-19 12:59N 41°30' W 125°29'713.7
2018-Jun-19 12:30N 41°36' W 125°31'713.8
2018-Jun-19 12:00N 41°43' W 125°34'713.8
2018-Jun-19 11:28N 41°50' W 125°36'613.6
2018-Jun-19 11:00N 41°56' W 125°38'713.8
2018-Jun-19 10:29N 42°03' W 125°41'713.6
2018-Jun-19 10:00N 42°10' W 125°43'713.7
2018-Jun-19 09:30N 42°16' W 125°45'714.2
2018-Jun-19 09:00N 42°23' W 125°48'714.1
2018-Jun-19 08:30N 42°30' W 125°50'714.2
2018-Jun-19 08:00N 42°37' W 125°53'713.7
2018-Jun-19 07:30N 42°43' W 125°55'713.8
2018-Jun-19 06:59N 42°50' W 125°58'714.0
2018-Jun-19 06:30N 42°57' W 126°01'714.0
2018-Jun-19 06:00N 43°03' W 126°03'713.9
2018-Jun-19 05:30N 43°10' W 126°06'713.6
2018-Jun-19 05:00N 43°17' W 126°08'1013.6
2018-Jun-19 04:18N 43°26' W 126°11'513.8
2018-Jun-19 03:54N 43°31' W 126°13'613.7
2018-Jun-19 03:29N 43°37' W 126°15'713.8
2018-Jun-19 03:00N 43°43' W 126°18'816.4
2018-Jun-19 02:30N 43°51' W 126°21'916.9
2018-Jun-19 01:59N 43°60' W 126°24'816.7
2018-Jun-19 01:30N 44°07' W 126°27'816.3
2018-Jun-19 01:00N 44°15' W 126°30'1916.0
2018-Jun-18 23:48N 44°34' W 126°37'616.5
2018-Jun-18 23:28N 44°39' W 126°39'816.4
2018-Jun-18 23:00N 44°46' W 126°42'816.2
2018-Jun-18 22:30N 44°54' W 126°45'816.5
2018-Jun-18 22:00N 45°02' W 126°48'1416.6
2018-Jun-18 21:10N 45°16' W 126°53'316.4
2018-Jun-18 21:00N 45°18' W 126°54'816.2
2018-Jun-18 20:30N 45°26' W 126°57'816.3
2018-Jun-18 20:00N 45°34' W 127°00'917.0
2018-Jun-18 19:30N 45°42' W 127°04'817.0
2018-Jun-18 19:00N 45°50' W 127°07'1116.7
2018-Jun-18 18:20N 46°01' W 127°12'916.5
2018-Jun-18 17:46N 46°10' W 127°16'716.7
2018-Jun-18 17:21N 46°16' W 127°19'616.8
2018-Jun-18 17:00N 46°22' W 127°22'816.8
2018-Jun-18 16:30N 46°30' W 127°25'917.1
2018-Jun-18 16:00N 46°38' W 127°29'917.2
2018-Jun-18 15:30N 46°46' W 127°32'816.8
2018-Jun-18 15:00N 46°54' W 127°36'815.2
2018-Jun-18 14:30N 47°02' W 127°39'714.1
2018-Jun-18 14:00N 47°08' W 127°43'714.2
2018-Jun-18 13:30N 47°15' W 127°46'714.3
2018-Jun-18 13:00N 47°22' W 127°49'4114.2
2018-Jun-18 10:05N 48°01' W 128°07'114.0
2018-Jun-18 10:00N 48°03' W 128°08'1014.0
2018-Jun-18 09:19N 48°12' W 128°12'414.2
2018-Jun-18 09:00N 48°16' W 128°14'714.1
2018-Jun-18 08:30N 48°23' W 128°18'714.0
2018-Jun-18 08:00N 48°29' W 128°21'714.1
2018-Jun-18 07:30N 48°36' W 128°24'714.2
2018-Jun-18 06:58N 48°44' W 128°27'17116.8
2018-Jun-17 20:50N 51°27' W 129°47'716.7
2018-Jun-17 20:26N 51°33' W 129°50'816.1
2018-Jun-17 19:55N 51°41' W 129°54'716.3
2018-Jun-17 19:30N 51°47' W 129°58'816.3
2018-Jun-17 19:00N 51°55' W 130°01'816.5
2018-Jun-17 18:30N 52°03' W 130°06'917.1
2018-Jun-17 17:57N 52°12' W 130°10'817.1
2018-Jun-17 17:30N 52°19' W 130°14'5717.9
2018-Jun-17 14:18N 53°14' W 130°42'518.1
2018-Jun-17 14:01N 53°19' W 130°45'918.1
2018-Jun-17 13:30N 53°28' W 130°50'918.1
2018-Jun-17 13:00N 53°36' W 130°52'917.6
2018-Jun-17 12:31N 53°45' W 130°55'917.5
2018-Jun-17 12:00N 53°54' W 130°58'917.5
2018-Jun-17 11:30N 54°02' W 131°00'917.5
2018-Jun-17 11:00N 54°11' W 131°00'816.2
2018-Jun-17 10:31N 54°19' W 130°57'5 9.9
2018-Jun-17 10:01N 54°17' W 130°49'815.3
2018-Jun-17 09:30N 54°14' W 130°37'917.3
2018-Jun-17 09:00N 54°12' W 130°23'4 8.2
2018-Jun-17 08:30N 54°16' W 130°21'2 3.1
2018-Jun-17 08:00N 54°17' W 130°22'0 0.0
2018-Jun-17 07:27N 54°17' W 130°22'0 0.0
2018-Jun-17 06:54N 54°17' W 130°22'0 0.0
2018-Jun-17 06:30N 54°17' W 130°22'0 0.0
2018-Jun-17 06:00N 54°17' W 130°22'0 0.0
2018-Jun-17 05:30N 54°17' W 130°22'0 0.0
2018-Jun-17 05:00N 54°17' W 130°22'0 0.0
2018-Jun-17 04:27N 54°17' W 130°22'0 0.0
2018-Jun-17 04:00N 54°17' W 130°22'0 0.0
2018-Jun-17 03:30N 54°17' W 130°22'0 0.0
2018-Jun-17 03:00N 54°17' W 130°22'0 0.0
2018-Jun-17 02:30N 54°17' W 130°22'0 0.0
2018-Jun-17 02:00N 54°17' W 130°22'0 0.0
2018-Jun-17 01:30N 54°17' W 130°22'0 0.0
2018-Jun-17 00:57N 54°17' W 130°22'0 0.0
2018-Jun-17 00:30N 54°17' W 130°22'0 0.0
2018-Jun-16 23:57N 54°17' W 130°22'0 0.0
2018-Jun-16 23:27N 54°17' W 130°22'0 0.0
2018-Jun-16 22:57N 54°17' W 130°22'0 0.0
2018-Jun-16 22:27N 54°17' W 130°22'0 0.0
2018-Jun-16 21:57N 54°17' W 130°22'0 0.0
2018-Jun-16 21:27N 54°17' W 130°22'0 0.0
2018-Jun-16 20:48N 54°17' W 130°22'0 0.0
2018-Jun-16 19:18N 54°17' W 130°22'0 0.0
2018-Jun-16 19:00N 54°17' W 130°22'0 0.0
2018-Jun-16 16:06N 54°17' W 130°22'0 0.0
2018-Jun-16 15:45N 54°17' W 130°22'0 0.0
2018-Jun-16 15:30N 54°17' W 130°22'0 0.0
2018-Jun-16 15:00N 54°17' W 130°22'0 0.1
2018-Jun-16 14:30N 54°17' W 130°22'0 0.1
2018-Jun-16 13:48N 54°17' W 130°22'0 0.0
2018-Jun-16 13:30N 54°17' W 130°22'0 0.0
2018-Jun-16 13:00N 54°17' W 130°22'0 0.0
2018-Jun-16 11:54N 54°17' W 130°22'0 0.0
2018-Jun-16 11:24N 54°17' W 130°22'0 0.0
2018-Jun-16 11:00N 54°17' W 130°22'0 0.0
2018-Jun-16 10:30N 54°17' W 130°22'0 0.0
2018-Jun-16 10:00N 54°17' W 130°22'0 0.0
2018-Jun-16 09:30N 54°17' W 130°22'0 0.0
2018-Jun-16 09:00N 54°17' W 130°22'0 0.0
2018-Jun-16 08:30N 54°17' W 130°22'0 0.0
2018-Jun-16 08:00N 54°17' W 130°22'0 0.0
2018-Jun-16 05:36N 54°17' W 130°22'0 0.0
2018-Jun-16 05:24N 54°17' W 130°22'0 0.0
2018-Jun-16 04:57N 54°17' W 130°22'0 0.0
2018-Jun-16 04:30N 54°17' W 130°22'0 0.0
2018-Jun-16 03:54N 54°17' W 130°22'0 0.0
2018-Jun-16 03:30N 54°17' W 130°22'0 0.0
2018-Jun-16 02:48N 54°17' W 130°22'0 0.0
2018-Jun-16 02:30N 54°17' W 130°22'0 0.0
2018-Jun-16 02:00N 54°17' W 130°22'0 0.0
2018-Jun-16 01:21N 54°17' W 130°22'0 0.0
2018-Jun-16 01:00N 54°17' W 130°22'0 0.0
2018-Jun-16 00:24N 54°17' W 130°22'0 0.0
2018-Jun-16 00:00N 54°17' W 130°22'0 0.0
2018-Jun-15 23:24N 54°17' W 130°22'0 0.0
2018-Jun-15 23:00N 54°17' W 130°22'0 0.0
2018-Jun-15 22:30N 54°17' W 130°22'0 0.0
2018-Jun-15 22:00N 54°17' W 130°22'0 0.0
2018-Jun-15 21:24N 54°17' W 130°22'0 0.0
2018-Jun-15 20:57N 54°17' W 130°22'1 1.2
2018-Jun-15 20:30N 54°18' W 130°22'1 1.2
2018-Jun-15 20:00N 54°17' W 130°22'4 8.2
2018-Jun-15 19:30N 54°13' W 130°21'4 7.6
2018-Jun-15 19:00N 54°12' W 130°27'917.3
2018-Jun-15 18:30N 54°15' W 130°41'816.1
2018-Jun-15 18:00N 54°19' W 130°53'612.5
2018-Jun-15 17:30N 54°20' W 131°03'917.3
2018-Jun-15 17:00N 54°20' W 131°18'918.2
2018-Jun-15 16:30N 54°20' W 131°34'917.7
2018-Jun-15 15:59N 54°20' W 131°50'  
2018-Jun-11 00:00N 54°42' E 171°36'   050 / 281013.0 5.4 8.0 4.0

Dump ship's entire track history